sensor_id;sensor_type;location;lat;lon;timestamp;P1;durP1;ratioP1;P2;durP2;ratioP2
63089;SDS011;49174;43.198;27.824;2023-02-03T05:52:49;5.72;;;3.58;;
63089;SDS011;49174;43.198;27.824;2023-02-03T05:55:15;7.93;;;4.55;;
63089;SDS011;49174;43.198;27.824;2023-02-03T05:57:40;9.15;;;4.65;;
63089;SDS011;49174;43.198;27.824;2023-02-03T06:47:22;15.50;;;8.70;;
63089;SDS011;49174;43.198;27.824;2023-02-03T06:49:48;23.58;;;12.77;;
63089;SDS011;49174;43.198;27.824;2023-02-03T06:52:13;11.80;;;4.70;;
63089;SDS011;49174;43.198;27.824;2023-02-03T06:54:39;7.50;;;4.30;;
63089;SDS011;49174;43.198;27.824;2023-02-03T06:57:05;7.72;;;4.45;;
63089;SDS011;49174;43.198;27.824;2023-02-03T06:59:31;6.93;;;4.05;;
63089;SDS011;49174;43.198;27.824;2023-02-03T07:01:56;5.97;;;3.70;;
63089;SDS011;49174;43.198;27.824;2023-02-03T07:04:22;9.15;;;4.72;;
63089;SDS011;49174;43.198;27.824;2023-02-03T07:06:48;19.05;;;13.90;;
63089;SDS011;49174;43.198;27.824;2023-02-03T07:09:13;9.88;;;7.70;;
63089;SDS011;49174;43.198;27.824;2023-02-03T07:11:39;9.27;;;5.82;;
63089;SDS011;49174;43.198;27.824;2023-02-03T07:14:04;8.57;;;5.00;;
63089;SDS011;49174;43.198;27.824;2023-02-03T07:16:30;6.03;;;3.67;;
63089;SDS011;49174;43.198;27.824;2023-02-03T07:18:58;9.68;;;2.90;;
63089;SDS011;49174;43.198;27.824;2023-02-03T07:21:24;9.05;;;3.15;;
63089;SDS011;49174;43.198;27.824;2023-02-03T07:23:49;5.53;;;2.60;;
63089;SDS011;49174;43.198;27.824;2023-02-03T07:26:15;5.07;;;2.78;;
63089;SDS011;49174;43.198;27.824;2023-02-03T07:28:41;4.20;;;2.33;;
63089;SDS011;49174;43.198;27.824;2023-02-03T07:31:07;3.78;;;2.08;;
63089;SDS011;49174;43.198;27.824;2023-02-03T07:33:34;6.50;;;2.17;;
63089;SDS011;49174;43.198;27.824;2023-02-03T07:36:00;4.68;;;2.58;;
63089;SDS011;49174;43.198;27.824;2023-02-03T07:38:26;5.72;;;2.40;;
63089;SDS011;49174;43.198;27.824;2023-02-03T07:40:52;6.50;;;3.13;;
63089;SDS011;49174;43.198;27.824;2023-02-03T07:43:18;4.20;;;2.28;;
63089;SDS011;49174;43.198;27.824;2023-02-03T07:53:55;12.82;;;6.32;;
63089;SDS011;49174;43.198;27.824;2023-02-03T08:02:12;5.25;;;2.85;;
63089;SDS011;49174;43.198;27.824;2023-02-03T08:04:38;4.85;;;2.72;;
63089;SDS011;49174;43.198;27.824;2023-02-03T08:07:03;6.78;;;2.75;;
63089;SDS011;49174;43.198;27.824;2023-02-03T08:09:29;5.40;;;2.85;;
63089;SDS011;49174;43.198;27.824;2023-02-03T08:17:09;3.42;;;1.90;;
63089;SDS011;49174;43.198;27.824;2023-02-03T08:19:35;4.30;;;2.22;;
63089;SDS011;49174;43.198;27.824;2023-02-03T08:24:42;7.65;;;2.38;;
63089;SDS011;49174;43.198;27.824;2023-02-03T08:29:51;5.55;;;2.42;;
63089;SDS011;49174;43.198;27.824;2023-02-03T08:32:19;4.13;;;2.00;;
63089;SDS011;49174;43.198;27.824;2023-02-03T08:34:46;6.43;;;2.95;;
63089;SDS011;49174;43.198;27.824;2023-02-03T08:37:13;3.35;;;2.03;;
63089;SDS011;49174;43.198;27.824;2023-02-03T08:39:41;6.20;;;2.42;;
63089;SDS011;49174;43.198;27.824;2023-02-03T08:42:08;11.18;;;6.57;;
63089;SDS011;49174;43.198;27.824;2023-02-03T08:44:34;2.80;;;1.73;;
63089;SDS011;49174;43.198;27.824;2023-02-03T08:47:00;6.07;;;3.20;;
63089;SDS011;49174;43.198;27.824;2023-02-03T08:49:27;5.95;;;2.45;;
63089;SDS011;49174;43.198;27.824;2023-02-03T08:51:54;4.05;;;2.50;;
63089;SDS011;49174;43.198;27.824;2023-02-03T08:54:21;3.70;;;1.98;;
63089;SDS011;49174;43.198;27.824;2023-02-03T09:05:35;5.15;;;2.70;;
63089;SDS011;49174;43.198;27.824;2023-02-03T09:24:35;5.72;;;3.10;;
63089;SDS011;49174;43.198;27.824;2023-02-03T09:27:01;6.70;;;3.03;;
63089;SDS011;49174;43.198;27.824;2023-02-03T09:32:15;3.20;;;2.35;;
63089;SDS011;49174;43.198;27.824;2023-02-03T09:34:41;3.78;;;2.08;;
63089;SDS011;49174;43.198;27.824;2023-02-03T09:37:06;6.68;;;2.95;;
63089;SDS011;49174;43.198;27.824;2023-02-03T09:47:41;8.38;;;2.50;;
63089;SDS011;49174;43.198;27.824;2023-02-03T09:50:14;7.75;;;3.20;;
63089;SDS011;49174;43.198;27.824;2023-02-03T09:52:45;6.32;;;3.00;;
63089;SDS011;49174;43.198;27.824;2023-02-03T09:57:42;4.18;;;2.00;;
63089;SDS011;49174;43.198;27.824;2023-02-03T10:00:19;5.40;;;2.50;;
63089;SDS011;49174;43.198;27.824;2023-02-03T10:05:26;2.60;;;1.23;;
63089;SDS011;49174;43.198;27.824;2023-02-03T10:19:14;4.68;;;1.25;;
63089;SDS011;49174;43.198;27.824;2023-02-03T10:22:03;1.77;;;1.00;;
63089;SDS011;49174;43.198;27.824;2023-02-03T10:51:58;2.05;;;1.40;;
63089;SDS011;49174;43.198;27.824;2023-02-03T10:54:31;2.03;;;1.00;;
63089;SDS011;49174;43.198;27.824;2023-02-03T10:57:02;2.13;;;1.17;;
63089;SDS011;49174;43.198;27.824;2023-02-03T10:59:32;2.08;;;1.10;;
63089;SDS011;49174;43.198;27.824;2023-02-03T11:01:59;1.77;;;1.08;;
63089;SDS011;49174;43.198;27.824;2023-02-03T11:04:38;2.70;;;1.17;;
63089;SDS011;49174;43.198;27.824;2023-02-03T11:07:05;2.85;;;1.25;;
63089;SDS011;49174;43.198;27.824;2023-02-03T11:09:36;3.35;;;1.67;;
63089;SDS011;49174;43.198;27.824;2023-02-03T11:14:57;3.08;;;1.25;;
63089;SDS011;49174;43.198;27.824;2023-02-03T11:17:29;2.80;;;1.77;;
63089;SDS011;49174;43.198;27.824;2023-02-03T11:20:02;3.60;;;1.20;;
63089;SDS011;49174;43.198;27.824;2023-02-03T11:22:39;2.33;;;1.30;;
63089;SDS011;49174;43.198;27.824;2023-02-03T11:25:16;2.00;;;1.25;;
63089;SDS011;49174;43.198;27.824;2023-02-03T11:27:44;2.10;;;1.13;;
63089;SDS011;49174;43.198;27.824;2023-02-03T11:30:14;2.45;;;1.40;;
63089;SDS011;49174;43.198;27.824;2023-02-03T11:32:45;1.98;;;1.25;;
63089;SDS011;49174;43.198;27.824;2023-02-03T11:37:55;1.87;;;1.13;;
63089;SDS011;49174;43.198;27.824;2023-02-03T11:40:30;2.35;;;1.35;;
63089;SDS011;49174;43.198;27.824;2023-02-03T12:04:38;2.17;;;1.00;;
63089;SDS011;49174;43.198;27.824;2023-02-03T12:10:05;4.28;;;1.58;;
63089;SDS011;49174;43.198;27.824;2023-02-03T12:27:00;3.53;;;2.23;;
63089;SDS011;49174;43.198;27.824;2023-02-03T12:29:46;3.63;;;1.95;;
63089;SDS011;49174;43.198;27.824;2023-02-03T12:35:01;5.35;;;2.92;;
63089;SDS011;49174;43.198;27.824;2023-02-03T12:37:42;3.38;;;1.63;;
63089;SDS011;49174;43.198;27.824;2023-02-03T12:40:14;5.65;;;3.00;;
63089;SDS011;49174;43.198;27.824;2023-02-03T12:42:45;3.92;;;2.30;;
63089;SDS011;49174;43.198;27.824;2023-02-03T12:45:20;2.90;;;2.45;;
63089;SDS011;49174;43.198;27.824;2023-02-03T12:47:57;4.03;;;1.70;;
63089;SDS011;49174;43.198;27.824;2023-02-03T12:53:36;1.98;;;1.20;;
63089;SDS011;49174;43.198;27.824;2023-02-03T12:58:57;10.20;;;4.43;;
63089;SDS011;49174;43.198;27.824;2023-02-03T13:09:47;1.73;;;1.02;;
63089;SDS011;49174;43.198;27.824;2023-02-03T13:20:20;4.63;;;1.40;;
63089;SDS011;49174;43.198;27.824;2023-02-03T13:28:17;3.60;;;1.77;;
63089;SDS011;49174;43.198;27.824;2023-02-03T13:39:42;6.97;;;3.85;;
63089;SDS011;49174;43.198;27.824;2023-02-03T13:42:21;8.85;;;4.65;;
63089;SDS011;49174;43.198;27.824;2023-02-03T13:45:06;15.82;;;8.02;;
63089;SDS011;49174;43.198;27.824;2023-02-03T13:47:34;20.33;;;11.07;;
63089;SDS011;49174;43.198;27.824;2023-02-03T13:50:00;23.50;;;13.00;;
63089;SDS011;49174;43.198;27.824;2023-02-03T13:52:34;12.48;;;7.65;;
63089;SDS011;49174;43.198;27.824;2023-02-03T13:55:19;10.45;;;7.65;;
63089;SDS011;49174;43.198;27.824;2023-02-03T13:57:53;8.23;;;4.50;;
63089;SDS011;49174;43.198;27.824;2023-02-03T14:03:16;7.25;;;3.03;;
63089;SDS011;49174;43.198;27.824;2023-02-03T14:06:02;3.97;;;1.90;;
63089;SDS011;49174;43.198;27.824;2023-02-03T14:16:39;3.72;;;2.10;;
63089;SDS011;49174;43.198;27.824;2023-02-03T14:21:58;4.70;;;1.73;;
63089;SDS011;49174;43.198;27.824;2023-02-03T14:24:42;2.42;;;1.52;;
63089;SDS011;49174;43.198;27.824;2023-02-03T14:27:15;1.83;;;1.30;;
63089;SDS011;49174;43.198;27.824;2023-02-03T14:30:01;2.08;;;1.30;;
63089;SDS011;49174;43.198;27.824;2023-02-03T14:32:47;3.20;;;1.30;;
63089;SDS011;49174;43.198;27.824;2023-02-03T14:35:55;2.92;;;1.23;;
63089;SDS011;49174;43.198;27.824;2023-02-03T14:38:12;3.97;;;1.80;;
63089;SDS011;49174;43.198;27.824;2023-02-03T14:43:33;3.20;;;1.30;;
63089;SDS011;49174;43.198;27.824;2023-02-03T14:52:44;2.88;;;1.67;;
63089;SDS011;49174;43.198;27.824;2023-02-03T14:58:02;2.95;;;1.83;;
63089;SDS011;49174;43.198;27.824;2023-02-03T15:00:32;4.25;;;2.03;;
63089;SDS011;49174;43.198;27.824;2023-02-03T15:08:00;2.70;;;1.42;;
63089;SDS011;49174;43.198;27.824;2023-02-03T15:10:42;3.08;;;1.70;;
63089;SDS011;49174;43.198;27.824;2023-02-03T15:15:58;3.33;;;1.58;;
63089;SDS011;49174;43.198;27.824;2023-02-03T15:18:35;2.97;;;1.60;;
63089;SDS011;49174;43.198;27.824;2023-02-03T15:21:01;4.28;;;2.28;;
63089;SDS011;49174;43.198;27.824;2023-02-03T15:23:29;3.85;;;1.90;;
63089;SDS011;49174;43.198;27.824;2023-02-03T15:26:25;3.28;;;1.85;;
63089;SDS011;49174;43.198;27.824;2023-02-03T15:28:55;4.55;;;2.85;;
63089;SDS011;49174;43.198;27.824;2023-02-03T15:31:23;3.40;;;2.25;;
63089;SDS011;49174;43.198;27.824;2023-02-03T15:33:57;5.57;;;2.97;;
63089;SDS011;49174;43.198;27.824;2023-02-03T15:36:35;5.22;;;2.53;;
63089;SDS011;49174;43.198;27.824;2023-02-03T15:41:56;4.55;;;2.38;;
63089;SDS011;49174;43.198;27.824;2023-02-03T15:55:15;20.90;;;10.88;;
63089;SDS011;49174;43.198;27.824;2023-02-03T16:08:44;13.23;;;5.40;;
63089;SDS011;49174;43.198;27.824;2023-02-03T16:31:53;7.30;;;5.38;;
63089;SDS011;49174;43.198;27.824;2023-02-03T17:31:12;13.98;;;9.10;;
63089;SDS011;49174;43.198;27.824;2023-02-03T17:39:31;16.73;;;8.98;;
63089;SDS011;49174;43.198;27.824;2023-02-03T17:41:57;13.25;;;7.95;;
63089;SDS011;49174;43.198;27.824;2023-02-03T17:44:23;11.10;;;8.23;;
63089;SDS011;49174;43.198;27.824;2023-02-03T17:46:49;10.63;;;6.90;;
63089;SDS011;49174;43.198;27.824;2023-02-03T18:00:10;12.73;;;8.73;;
63089;SDS011;49174;43.198;27.824;2023-02-03T18:02:36;15.02;;;10.10;;
63089;SDS011;49174;43.198;27.824;2023-02-03T18:05:02;11.50;;;6.28;;
63089;SDS011;49174;43.198;27.824;2023-02-03T21:16:35;12.52;;;6.75;;
63089;SDS011;49174;43.198;27.824;2023-02-03T21:19:03;17.38;;;8.75;;
